KPDK/PDK METAR and TAF weather

Enter ICAO airport designator
Station Type Date Time Source
KPDK METAR 2019/10/18 10:53 UTC NOAA

KPDK 181053Z 00000KT 10SM CLR 04/03 A2999 RMK AO2 SLP158 T00440033


Station Type Date Time Source
KPDK Decoded METAR 2019/10/18 10:53 UTC NOAA

ATLANTA DE KALB-PEACHTREE, GA, United States (KPDK) 33-53N 084-18W 302M
Oct 18, 2019 - 06:53 AM EDT / 2019.10.18 1053 UTC
Wind: Calm:0
Visibility: 10 mile(s):0
Sky conditions: clear
Temperature: 39.9 F (4.4 C)
Dew Point: 37.9 F (3.3 C)
Relative Humidity: 92%
Pressure (altimeter): 29.99 in. Hg (1015 hPa)
ob: KPDK 181053Z 00000KT 10SM CLR 04/03 A2999 RMK AO2 SLP158 T00440033
cycle: 11

Station Type Date Time Source
KPDK TAF 2019/10/18 06:24 UTC NOAA

TAF KPDK 180521Z 1806/1906 VRB03KT P6SM FEW250
FM181100 05005KT P6SM FEW250
FM181600 10007KT P6SM FEW250
FM190000 09006KT P6SM SCT250

Example: see airport list